createdAt,value
2023-04-30T00:00:01.570Z,7.2
2023-04-30T00:01:01.168Z,7.2
2023-04-30T00:02:00.756Z,7.3
2023-04-30T00:03:01.374Z,7.2
2023-04-30T00:04:01.528Z,7.2
2023-04-30T00:05:01.134Z,7.1
2023-04-30T00:06:00.764Z,7.1
2023-04-30T00:07:01.349Z,7.1
2023-04-30T00:08:00.974Z,7.1
2023-04-30T00:09:01.569Z,7.1
2023-04-30T00:10:01.166Z,7
2023-04-30T00:11:00.731Z,7
2023-04-30T00:12:01.346Z,7
2023-04-30T00:13:00.933Z,7.1
2023-04-30T00:14:01.528Z,7.2
2023-04-30T00:15:01.120Z,7.1
2023-04-30T00:16:01.810Z,7.2
2023-04-30T00:17:01.422Z,7.3
2023-04-30T00:18:00.979Z,7.2
2023-04-30T00:19:01.525Z,7.2
2023-04-30T00:20:01.194Z,7.2
2023-04-30T00:21:01.721Z,7.2
2023-04-30T00:22:01.353Z,7.2
2023-04-30T00:23:00.941Z,7.1
2023-04-30T00:24:01.533Z,7
2023-04-30T00:25:01.130Z,7
2023-04-30T00:26:01.704Z,7
2023-04-30T00:27:01.321Z,7
2023-04-30T00:28:00.921Z,6.9
2023-04-30T00:29:01.489Z,6.9
2023-04-30T00:30:01.082Z,6.9
2023-04-30T00:31:01.674Z,6.8
2023-04-30T00:32:01.338Z,6.9
2023-04-30T00:33:00.976Z,6.8
2023-04-30T00:34:01.472Z,6.6
2023-04-30T00:35:01.065Z,6.6
2023-04-30T00:36:01.652Z,6.5
2023-04-30T00:37:01.275Z,6.4
2023-04-30T00:38:00.892Z,6.4
2023-04-30T00:39:01.452Z,6.6
2023-04-30T00:40:01.051Z,6.3
2023-04-30T00:41:01.650Z,6.3
2023-04-30T00:42:01.281Z,6.3
2023-04-30T00:43:00.881Z,6.3
2023-04-30T00:44:01.466Z,6.3
2023-04-30T00:45:01.053Z,6.3
2023-04-30T00:46:01.645Z,6.3
2023-04-30T00:47:01.316Z,6.3
2023-04-30T00:48:00.884Z,6.1
2023-04-30T00:49:01.435Z,5.9
2023-04-30T00:50:01.032Z,5.8
2023-04-30T00:51:01.608Z,5.8
2023-04-30T00:52:01.221Z,5.9
2023-04-30T00:53:00.787Z,5.9
2023-04-30T00:54:01.403Z,6
2023-04-30T00:55:00.991Z,6
2023-04-30T00:56:01.667Z,5.9
2023-04-30T00:57:01.258Z,6
2023-04-30T00:58:00.821Z,5.9
2023-04-30T00:59:01.378Z,5.9
2023-04-30T01:00:00.973Z,5.9
2023-04-30T01:01:01.561Z,5.9
2023-04-30T01:02:01.179Z,5.9
2023-04-30T01:03:00.832Z,5.8
2023-04-30T01:04:01.355Z,5.7
2023-04-30T01:05:00.958Z,5.7
2023-04-30T01:06:01.564Z,5.7
2023-04-30T01:07:01.161Z,5.7
2023-04-30T01:08:00.771Z,5.6
2023-04-30T01:09:01.357Z,5.6
2023-04-30T01:10:00.992Z,5.6
2023-04-30T01:11:01.545Z,5.7
2023-04-30T01:12:01.133Z,5.7
2023-04-30T01:13:00.715Z,5.6
2023-04-30T01:14:01.322Z,5.6
2023-04-30T01:15:00.917Z,5.5
2023-04-30T01:16:01.538Z,5.4
2023-04-30T01:17:01.142Z,5.4
2023-04-30T01:18:00.807Z,5.5
2023-04-30T01:19:01.338Z,5.4
2023-04-30T01:20:00.956Z,5.4
2023-04-30T01:21:01.544Z,5.4
2023-04-30T01:22:01.144Z,5.5
2023-04-30T01:23:01.708Z,5.5
2023-04-30T01:24:01.319Z,5.4
2023-04-30T01:25:00.918Z,5.3
2023-04-30T01:26:01.533Z,5.4
2023-04-30T01:27:01.126Z,5.4
2023-04-30T01:28:00.729Z,5.5
2023-04-30T01:29:01.342Z,5.5
2023-04-30T01:30:00.942Z,5.5
2023-04-30T01:31:01.533Z,5.6
2023-04-30T01:32:01.160Z,5.6
2023-04-30T01:33:00.793Z,5.6
2023-04-30T01:34:01.321Z,5.6
2023-04-30T01:35:03.015Z,5.6
2023-04-30T01:36:01.493Z,5.5
2023-04-30T01:37:01.084Z,5.5
2023-04-30T01:38:01.667Z,5.5
2023-04-30T01:39:01.259Z,5.3
2023-04-30T01:40:00.883Z,5.3
2023-04-30T01:41:01.447Z,5.2
2023-04-30T01:42:01.252Z,5.1
2023-04-30T01:43:01.635Z,5.1
2023-04-30T01:44:01.316Z,5.2
2023-04-30T01:45:00.913Z,5.3
2023-04-30T01:46:01.604Z,5.3
2023-04-30T01:47:01.686Z,5.3
2023-04-30T01:48:01.761Z,5.2
2023-04-30T01:49:01.575Z,5.2
2023-04-30T01:50:00.972Z,5.2
2023-04-30T01:51:01.749Z,5.1
2023-04-30T01:52:01.201Z,4.9
2023-04-30T01:53:00.775Z,4.9
2023-04-30T01:54:01.361Z,4.8
2023-04-30T01:55:01.005Z,4.8
2023-04-30T01:56:01.548Z,4.9
2023-04-30T01:57:01.293Z,4.8
2023-04-30T01:58:00.827Z,4.9
2023-04-30T01:59:01.361Z,4.8
2023-04-30T02:00:00.982Z,4.8
2023-04-30T02:01:01.564Z,4.9
2023-04-30T02:02:01.180Z,4.9
2023-04-30T02:03:00.886Z,4.9
2023-04-30T02:04:01.374Z,4.9
2023-04-30T02:05:00.972Z,5
2023-04-30T02:06:01.603Z,4.9
2023-04-30T02:07:01.249Z,4.9
2023-04-30T02:08:01.077Z,4.9
2023-04-30T02:09:01.381Z,5
2023-04-30T02:10:01.172Z,4.9
2023-04-30T02:11:01.578Z,4.8
2023-04-30T02:12:01.167Z,4.8
2023-04-30T02:13:00.756Z,4.8
2023-04-30T02:14:01.717Z,4.7
2023-04-30T02:15:00.995Z,4.7
2023-04-30T02:16:02.000Z,4.7
2023-04-30T02:17:01.240Z,4.6
2023-04-30T02:18:00.850Z,4.7
2023-04-30T02:19:01.545Z,4.7
2023-04-30T02:20:01.062Z,4.7
2023-04-30T02:21:01.659Z,4.5
2023-04-30T02:22:01.271Z,4.5
2023-04-30T02:23:00.872Z,4.7
2023-04-30T02:24:01.486Z,4.6
2023-04-30T02:25:01.078Z,4.7
2023-04-30T02:26:01.664Z,4.7
2023-04-30T02:27:01.261Z,4.8
2023-04-30T02:28:00.856Z,4.9
2023-04-30T02:29:01.461Z,5
2023-04-30T02:30:01.123Z,5
2023-04-30T02:31:01.649Z,4.9
2023-04-30T02:32:01.324Z,4.9
2023-04-30T02:33:00.919Z,4.8
2023-04-30T02:34:01.494Z,4.9
2023-04-30T02:35:01.108Z,5.1
2023-04-30T02:36:01.679Z,5.1
2023-04-30T02:37:01.294Z,4.9
2023-04-30T02:38:00.886Z,4.9
2023-04-30T02:39:01.468Z,4.8
2023-04-30T02:40:01.069Z,4.8
2023-04-30T02:41:01.642Z,4.7
2023-04-30T02:42:01.257Z,4.7
2023-04-30T02:43:00.845Z,4.7
2023-04-30T02:44:01.417Z,4.7
2023-04-30T02:45:01.014Z,4.6
2023-04-30T02:46:01.631Z,4.6
2023-04-30T02:47:01.271Z,4.5
2023-04-30T02:48:00.876Z,4.5
2023-04-30T02:49:01.403Z,4.4
2023-04-30T02:50:01.003Z,4.3
2023-04-30T02:51:01.594Z,4.4
2023-04-30T02:52:01.182Z,4.3
2023-04-30T02:53:00.796Z,4.5
2023-04-30T02:54:01.367Z,4.3
2023-04-30T02:55:00.954Z,4.3
2023-04-30T02:56:01.546Z,4.3
2023-04-30T02:57:01.210Z,4.3
2023-04-30T02:58:00.744Z,4.5
2023-04-30T02:59:01.293Z,4.3
2023-04-30T03:00:00.884Z,4.4
2023-04-30T03:01:01.481Z,4.6
2023-04-30T03:02:01.144Z,4.6
2023-04-30T03:03:01.760Z,4.6
2023-04-30T03:04:01.457Z,4.8
2023-04-30T03:05:00.949Z,4.9
2023-04-30T03:06:01.543Z,4.8
2023-04-30T03:07:01.144Z,4.8
2023-04-30T03:08:00.769Z,4.9
2023-04-30T03:09:01.282Z,5
2023-04-30T03:10:00.867Z,5
2023-04-30T03:11:01.518Z,5.1
2023-04-30T03:12:01.109Z,5.1
2023-04-30T03:13:01.695Z,5.1
2023-04-30T03:14:01.281Z,5.2
2023-04-30T03:15:00.891Z,5.3
2023-04-30T03:16:01.515Z,5.1
2023-04-30T03:17:01.104Z,5.3
2023-04-30T03:18:01.771Z,5.1
2023-04-30T03:19:01.447Z,5
2023-04-30T03:20:00.927Z,5.1
2023-04-30T03:21:01.539Z,5.1
2023-04-30T03:22:01.134Z,5.2
2023-04-30T03:23:00.742Z,5
2023-04-30T03:24:01.311Z,5
2023-04-30T03:25:00.933Z,5.2
2023-04-30T03:26:01.499Z,5.2
2023-04-30T03:27:01.100Z,5.3
2023-04-30T03:28:01.695Z,5.3
2023-04-30T03:29:01.288Z,5.1
2023-04-30T03:30:00.903Z,5.2
2023-04-30T03:31:01.510Z,5.1
2023-04-30T03:32:01.347Z,5
2023-04-30T03:33:01.782Z,5
2023-04-30T03:34:01.521Z,5.1
2023-04-30T03:35:01.194Z,5
2023-04-30T03:36:01.510Z,5
2023-04-30T03:37:01.100Z,4.8
2023-04-30T03:38:01.708Z,5.1
2023-04-30T03:39:01.301Z,5.1
2023-04-30T03:40:00.920Z,4.9
2023-04-30T03:41:01.485Z,5
2023-04-30T03:42:01.084Z,5.1
2023-04-30T03:43:01.673Z,5
2023-04-30T03:44:01.268Z,5.1
2023-04-30T03:45:00.897Z,5
2023-04-30T03:46:01.442Z,5
2023-04-30T03:47:01.035Z,5
2023-04-30T03:48:01.643Z,5.2
2023-04-30T03:49:01.256Z,5.2
2023-04-30T03:50:00.890Z,5.2
2023-04-30T03:51:01.422Z,5.3
2023-04-30T03:52:01.026Z,5.2
2023-04-30T03:53:01.598Z,5.3
2023-04-30T03:54:01.193Z,5.3
2023-04-30T03:55:00.787Z,5.3
2023-04-30T03:56:01.353Z,5.3
2023-04-30T03:57:00.961Z,5.2
2023-04-30T03:58:01.643Z,5.2
2023-04-30T03:59:01.181Z,5.2
2023-04-30T04:00:00.779Z,5.3
2023-04-30T04:01:01.340Z,5.2
2023-04-30T04:02:00.941Z,5.2
2023-04-30T04:03:01.582Z,5.2
2023-04-30T04:04:01.179Z,5.2
2023-04-30T04:05:00.744Z,5.2
2023-04-30T04:06:01.333Z,5.2
2023-04-30T04:07:00.976Z,5.2
2023-04-30T04:08:01.525Z,5.2
2023-04-30T04:09:01.126Z,5.2
2023-04-30T04:10:01.705Z,5.2
2023-04-30T04:11:01.297Z,5.1
2023-04-30T04:12:00.967Z,5.2
2023-04-30T04:13:01.490Z,5.2
2023-04-30T04:14:01.096Z,5.2
2023-04-30T04:15:01.654Z,5.2
2023-04-30T04:16:01.271Z,5.2
2023-04-30T04:17:00.930Z,5.2
2023-04-30T04:18:01.526Z,5.2
2023-04-30T04:19:01.136Z,5.2
2023-04-30T04:20:01.716Z,5.2
2023-04-30T04:21:01.310Z,5.2
2023-04-30T04:22:00.956Z,5.3
2023-04-30T04:23:01.469Z,5.3
2023-04-30T04:24:01.067Z,5.3
2023-04-30T04:25:01.633Z,5.4
2023-04-30T04:26:01.239Z,5.4
2023-04-30T04:27:00.852Z,5.3
2023-04-30T04:28:01.434Z,5.3
2023-04-30T04:29:01.022Z,5.3
2023-04-30T04:30:01.603Z,5.3
2023-04-30T04:31:01.198Z,5.3
2023-04-30T04:32:00.846Z,5.4
2023-04-30T04:33:01.407Z,5.5
2023-04-30T04:34:01.003Z,5.4
2023-04-30T04:35:01.587Z,5.5
2023-04-30T04:36:01.188Z,5.5
2023-04-30T04:37:00.766Z,5.5
2023-04-30T04:38:01.378Z,5.5
2023-04-30T04:39:00.977Z,5.5
2023-04-30T04:40:01.553Z,5.4
2023-04-30T04:41:01.146Z,5.3
2023-04-30T04:42:00.730Z,5.4
2023-04-30T04:43:01.334Z,5.3
2023-04-30T04:44:00.976Z,5.3
2023-04-30T04:45:01.524Z,5.2
2023-04-30T04:46:01.171Z,5.5
2023-04-30T04:47:01.716Z,5.6
2023-04-30T04:48:01.345Z,5.5
2023-04-30T04:49:00.959Z,5.8
2023-04-30T04:50:01.579Z,5.6
2023-04-30T04:51:01.196Z,5.8
2023-04-30T04:52:00.773Z,5.8
2023-04-30T04:53:01.352Z,6
2023-04-30T04:54:00.970Z,6
2023-04-30T04:55:01.557Z,6.1
2023-04-30T04:56:01.158Z,6.2
2023-04-30T04:57:00.731Z,6.3
2023-04-30T04:58:01.408Z,6.3
2023-04-30T04:59:00.981Z,6.4
2023-04-30T05:00:01.585Z,6.4
2023-04-30T05:01:01.198Z,6.5
2023-04-30T05:02:00.782Z,6.5
2023-04-30T05:03:01.383Z,6.5
2023-04-30T05:04:01.089Z,6.6
2023-04-30T05:05:01.601Z,6.6
2023-04-30T05:06:01.247Z,6.6
2023-04-30T05:07:00.785Z,6.6
2023-04-30T05:08:01.350Z,6.7
2023-04-30T05:09:00.946Z,6.7
2023-04-30T05:10:01.540Z,6.6
2023-04-30T05:11:01.176Z,6.7
2023-04-30T05:12:01.728Z,6.7
2023-04-30T05:13:01.320Z,6.7
2023-04-30T05:14:00.910Z,6.7
2023-04-30T05:15:01.507Z,6.8
2023-04-30T05:16:01.185Z,6.8
2023-04-30T05:17:01.684Z,6.9
2023-04-30T05:18:01.340Z,6.9
2023-04-30T05:19:00.932Z,6.9
2023-04-30T05:20:01.494Z,6.9
2023-04-30T05:21:01.134Z,6.9
2023-04-30T05:22:01.674Z,6.9
2023-04-30T05:23:01.265Z,6.9
2023-04-30T05:24:00.857Z,6.9
2023-04-30T05:25:01.443Z,6.9
2023-04-30T05:26:01.082Z,7
2023-04-30T05:27:01.644Z,7
2023-04-30T05:28:01.236Z,7
2023-04-30T05:29:00.817Z,7
2023-04-30T05:30:01.394Z,7.1
2023-04-30T05:31:00.995Z,7.2
2023-04-30T05:32:01.628Z,7.2
2023-04-30T05:33:01.284Z,7.2
2023-04-30T05:34:00.826Z,7.3
2023-04-30T05:35:01.415Z,7.3
2023-04-30T05:36:01.005Z,7.4
2023-04-30T05:37:01.621Z,7.5
2023-04-30T05:38:01.209Z,7.5
2023-04-30T05:39:00.798Z,7.5
2023-04-30T05:40:01.380Z,7.6
2023-04-30T05:41:00.974Z,7.5
2023-04-30T05:42:01.599Z,7.6
2023-04-30T05:43:01.192Z,7.6
2023-04-30T05:44:00.782Z,7.6
2023-04-30T05:45:01.370Z,7.7
2023-04-30T05:46:01.007Z,7.7
2023-04-30T05:47:01.547Z,7.7
2023-04-30T05:48:01.223Z,7.7
2023-04-30T05:49:01.707Z,7.7
2023-04-30T05:50:01.303Z,7.7
2023-04-30T05:51:00.915Z,7.7
2023-04-30T05:52:01.482Z,7.8
2023-04-30T05:53:01.086Z,7.8
2023-04-30T05:54:01.667Z,7.8
2023-04-30T05:55:01.257Z,7.9
2023-04-30T05:56:00.872Z,7.9
2023-04-30T05:57:01.444Z,8.1
2023-04-30T05:58:01.063Z,8.1
2023-04-30T05:59:01.719Z,8
2023-04-30T06:00:01.290Z,8.1
2023-04-30T06:01:00.884Z,8
2023-04-30T06:02:01.503Z,8
2023-04-30T06:03:01.117Z,8
2023-04-30T06:04:01.679Z,7.9
2023-04-30T06:05:01.267Z,8
2023-04-30T06:06:00.977Z,8.2
2023-04-30T06:07:01.491Z,8.2
2023-04-30T06:08:01.077Z,8.2
2023-04-30T06:09:01.680Z,8.3
2023-04-30T06:10:01.274Z,8.4
2023-04-30T06:11:00.872Z,8.3
2023-04-30T06:12:01.479Z,8.3
2023-04-30T06:13:01.068Z,8.3
2023-04-30T06:14:01.682Z,8.4
2023-04-30T06:15:01.281Z,8.3
2023-04-30T06:16:00.893Z,8.3
2023-04-30T06:17:01.507Z,8.3
2023-04-30T06:18:01.136Z,8.5
2023-04-30T06:19:01.714Z,8.5
2023-04-30T06:20:01.350Z,8.5
2023-04-30T06:21:00.963Z,8.4
2023-04-30T06:22:01.521Z,8.5
2023-04-30T06:23:01.112Z,8.5
2023-04-30T06:24:01.695Z,8.6
2023-04-30T06:25:01.310Z,8.6
2023-04-30T06:26:00.908Z,8.7
2023-04-30T06:27:01.494Z,8.7
2023-04-30T06:28:01.092Z,8.7
2023-04-30T06:29:01.676Z,8.7
2023-04-30T06:30:01.356Z,8.7
2023-04-30T06:31:00.939Z,8.7
2023-04-30T06:32:01.506Z,8.7
2023-04-30T06:33:01.121Z,8.7
2023-04-30T06:34:01.710Z,8.8
2023-04-30T06:35:01.339Z,8.8
2023-04-30T06:36:00.951Z,8.9
2023-04-30T06:37:01.512Z,9
2023-04-30T06:38:01.104Z,9.1
2023-04-30T06:39:01.686Z,9.1
2023-04-30T06:40:01.283Z,9
2023-04-30T06:41:00.896Z,9.1
2023-04-30T06:42:01.468Z,9.2
2023-04-30T06:43:01.064Z,9.2
2023-04-30T06:44:01.638Z,9.2
2023-04-30T06:45:01.232Z,9.1
2023-04-30T06:46:00.912Z,9.2
2023-04-30T06:47:01.411Z,9.4
2023-04-30T06:48:01.026Z,9.4
2023-04-30T06:49:01.590Z,9.4
2023-04-30T06:50:01.184Z,9.4
2023-04-30T06:51:00.786Z,9.5
2023-04-30T06:52:01.351Z,9.4
2023-04-30T06:53:00.960Z,9.5
2023-04-30T06:54:01.529Z,9.5
2023-04-30T06:55:01.133Z,9.5
2023-04-30T06:56:01.708Z,9.5
2023-04-30T06:57:01.318Z,9.7
2023-04-30T06:58:00.906Z,9.7
2023-04-30T06:59:01.492Z,9.5
2023-04-30T07:00:01.160Z,9.6
2023-04-30T07:01:01.695Z,9.6
2023-04-30T07:02:01.411Z,9.6
2023-04-30T07:03:00.963Z,9.7
2023-04-30T07:04:01.584Z,9.7
2023-04-30T07:05:01.160Z,9.6
2023-04-30T07:06:00.807Z,9.7
2023-04-30T07:07:01.358Z,9.7
2023-04-30T07:08:00.949Z,9.8
2023-04-30T07:09:01.536Z,9.8
2023-04-30T07:10:01.125Z,9.9
2023-04-30T07:11:01.708Z,10
2023-04-30T07:12:01.352Z,9.9
2023-04-30T07:13:00.968Z,10
2023-04-30T07:14:01.541Z,9.9
2023-04-30T07:15:01.134Z,10
2023-04-30T07:16:00.736Z,9.9
2023-04-30T07:17:01.317Z,10
2023-04-30T07:18:00.973Z,10
2023-04-30T07:19:01.478Z,9.9
2023-04-30T07:20:01.068Z,9.9
2023-04-30T07:21:01.647Z,10.1
2023-04-30T07:22:01.324Z,10.1
2023-04-30T07:23:00.922Z,10.3
2023-04-30T07:24:01.487Z,10.3
2023-04-30T07:25:01.090Z,10.2
2023-04-30T07:26:01.664Z,10.3
2023-04-30T07:27:01.282Z,10.3
2023-04-30T07:28:00.873Z,10.3
2023-04-30T07:29:01.440Z,10.3
2023-04-30T07:30:01.063Z,10.3
2023-04-30T07:31:01.617Z,10.3
2023-04-30T07:32:01.252Z,10.5
2023-04-30T07:33:00.896Z,10.5
2023-04-30T07:34:01.438Z,10.6
2023-04-30T07:35:01.385Z,10.7
2023-04-30T07:36:01.617Z,10.7
2023-04-30T07:37:01.221Z,10.7
2023-04-30T07:38:00.807Z,10.8
2023-04-30T07:39:01.429Z,10.8
2023-04-30T07:40:01.020Z,10.9
2023-04-30T07:41:01.607Z,10.7
2023-04-30T07:42:01.205Z,10.8
2023-04-30T07:43:00.786Z,10.8
2023-04-30T07:44:01.389Z,10.8
2023-04-30T07:45:00.985Z,10.8
2023-04-30T07:46:01.581Z,10.9
2023-04-30T07:47:01.181Z,11
2023-04-30T07:48:00.776Z,11.2
2023-04-30T07:49:01.365Z,11.2
2023-04-30T07:50:01.123Z,11
2023-04-30T07:51:01.543Z,11
2023-04-30T07:52:01.146Z,11
2023-04-30T07:53:00.728Z,11
2023-04-30T07:54:01.314Z,11
2023-04-30T07:55:00.924Z,11
2023-04-30T07:56:01.531Z,11.1
2023-04-30T07:57:01.147Z,11.2
2023-04-30T07:58:01.718Z,11.3
2023-04-30T07:59:01.331Z,11.4
2023-04-30T08:00:01.029Z,11.5
2023-04-30T08:01:01.508Z,11.5
2023-04-30T08:02:01.159Z,11.5
2023-04-30T08:03:01.912Z,11.4
2023-04-30T08:04:01.712Z,11.3
2023-04-30T08:05:00.929Z,11.3
2023-04-30T08:06:01.579Z,11.4
2023-04-30T08:07:01.171Z,11.3
2023-04-30T08:08:00.760Z,11.3
2023-04-30T08:09:01.354Z,11.3
2023-04-30T08:10:00.966Z,11.4
2023-04-30T08:11:01.512Z,11.5
2023-04-30T08:12:01.113Z,11.5
2023-04-30T08:13:01.694Z,11.4
2023-04-30T08:14:01.290Z,11.2
2023-04-30T08:15:00.895Z,11.3
2023-04-30T08:16:01.483Z,11.5
2023-04-30T08:17:01.173Z,11.6
2023-04-30T08:18:01.738Z,11.6
2023-04-30T08:19:01.379Z,11.7
2023-04-30T08:20:00.948Z,11.8
2023-04-30T08:21:01.506Z,11.9
2023-04-30T08:22:01.164Z,11.8
2023-04-30T08:23:01.697Z,11.8
2023-04-30T08:24:01.332Z,11.7
2023-04-30T08:25:00.948Z,11.8
2023-04-30T08:26:01.517Z,11.9
2023-04-30T08:27:01.116Z,11.8
2023-04-30T08:28:01.698Z,11.9
2023-04-30T08:29:01.289Z,11.9
2023-04-30T08:30:00.908Z,12
2023-04-30T08:31:01.495Z,12
2023-04-30T08:32:01.160Z,11.9
2023-04-30T08:33:01.703Z,12
2023-04-30T08:34:01.316Z,12
2023-04-30T08:35:00.947Z,12
2023-04-30T08:36:01.502Z,12.1
2023-04-30T08:37:01.102Z,12
2023-04-30T08:38:01.713Z,12.1
2023-04-30T08:39:01.310Z,12.3
2023-04-30T08:40:00.930Z,12.3
2023-04-30T08:41:01.498Z,12.3
2023-04-30T08:42:01.095Z,12.2
2023-04-30T08:43:01.682Z,12.2
2023-04-30T08:44:01.266Z,12.4
2023-04-30T08:45:00.882Z,12.5
2023-04-30T08:46:01.465Z,12.6
2023-04-30T08:47:01.103Z,12.5
2023-04-30T08:48:01.735Z,12.4
2023-04-30T08:49:01.353Z,12.6
2023-04-30T08:50:00.917Z,12.6
2023-04-30T08:51:01.514Z,12.6
2023-04-30T08:52:01.115Z,12.7
2023-04-30T08:53:01.701Z,12.6
2023-04-30T08:54:01.433Z,12.8
2023-04-30T08:55:01.111Z,12.8
2023-04-30T08:56:01.546Z,12.7
2023-04-30T08:57:01.140Z,12.8
2023-04-30T08:58:01.724Z,13
2023-04-30T08:59:01.316Z,13.1
2023-04-30T09:00:00.930Z,13.2
2023-04-30T09:01:01.603Z,13.3
2023-04-30T09:02:01.203Z,13.3
2023-04-30T09:03:01.053Z,13.2
2023-04-30T09:04:01.369Z,13.2
2023-04-30T09:05:00.967Z,13.1
2023-04-30T09:06:01.582Z,13
2023-04-30T09:07:02.301Z,13
2023-04-30T09:08:03.908Z,13.1
2023-04-30T09:09:01.043Z,13.2
2023-04-30T09:10:01.757Z,13.4
2023-04-30T09:11:01.294Z,13.2
2023-04-30T09:12:00.893Z,13.1
2023-04-30T09:13:01.549Z,13.1
2023-04-30T09:14:01.116Z,13.1
2023-04-30T09:15:01.699Z,13.2
2023-04-30T09:16:01.298Z,13.1
2023-04-30T09:17:00.889Z,12.9
2023-04-30T09:18:01.538Z,13.1
2023-04-30T09:19:01.130Z,13
2023-04-30T09:20:01.711Z,13.1
2023-04-30T09:21:01.301Z,13.2
2023-04-30T09:22:00.899Z,13.2
2023-04-30T09:23:01.506Z,13.2
2023-04-30T09:24:01.100Z,13.3
2023-04-30T09:25:01.672Z,13.4
2023-04-30T09:26:01.289Z,13.6
2023-04-30T09:27:00.915Z,13.6
2023-04-30T09:28:01.481Z,13.5
2023-04-30T09:29:01.078Z,13.6
2023-04-30T09:30:01.697Z,13.7
2023-04-30T09:31:01.307Z,13.8
2023-04-30T09:32:00.939Z,13.7
2023-04-30T09:33:01.931Z,13.8
2023-04-30T09:34:01.141Z,13.7
2023-04-30T09:35:01.741Z,13.6
2023-04-30T09:36:01.331Z,13.4
2023-04-30T09:37:00.924Z,13.4
2023-04-30T09:38:01.512Z,13.5
2023-04-30T09:39:01.104Z,13.4
2023-04-30T09:40:01.715Z,13.6
2023-04-30T09:41:01.461Z,13.6
2023-04-30T09:42:00.961Z,13.7
2023-04-30T09:43:01.527Z,13.7
2023-04-30T09:44:01.125Z,13.6
2023-04-30T09:45:01.742Z,13.6
2023-04-30T09:46:01.337Z,13.7
2023-04-30T09:47:00.982Z,13.7
2023-04-30T09:48:13.054Z,13.8
2023-04-30T09:49:01.052Z,13.9
2023-04-30T09:50:01.653Z,13.9
2023-04-30T09:51:01.262Z,13.9
2023-04-30T09:52:00.886Z,13.7
2023-04-30T09:53:01.428Z,13.7
2023-04-30T09:54:01.019Z,13.9
2023-04-30T09:55:01.617Z,13.9
2023-04-30T09:56:01.245Z,14.2
2023-04-30T09:57:00.815Z,14.3
2023-04-30T09:58:01.437Z,14.3
2023-04-30T09:59:01.042Z,14.3
2023-04-30T10:00:01.649Z,14.2
2023-04-30T10:01:01.366Z,14.3
2023-04-30T10:02:00.844Z,14.5
2023-04-30T10:03:01.514Z,14.4
2023-04-30T10:04:01.113Z,14.2
2023-04-30T10:05:01.664Z,14
2023-04-30T10:06:01.292Z,14
2023-04-30T10:07:00.908Z,14.2
2023-04-30T10:08:01.509Z,14.3
2023-04-30T10:09:01.106Z,14.5
2023-04-30T10:10:01.681Z,14.6
2023-04-30T10:11:01.329Z,14.5
2023-04-30T10:12:00.938Z,14.3
2023-04-30T10:13:01.519Z,14.2
2023-04-30T10:14:01.135Z,14.1
2023-04-30T10:15:01.696Z,14
2023-04-30T10:16:01.350Z,14
2023-04-30T10:17:00.961Z,14.1
2023-04-30T10:18:01.521Z,14.4
2023-04-30T10:19:01.164Z,14.3
2023-04-30T10:20:00.775Z,14.3
2023-04-30T10:21:01.343Z,14.3
2023-04-30T10:22:00.942Z,14.4
2023-04-30T10:23:01.529Z,14.4
2023-04-30T10:24:01.136Z,14.4
2023-04-30T10:25:01.705Z,14.3
2023-04-30T10:26:01.291Z,14.2
2023-04-30T10:27:00.877Z,14.5
2023-04-30T10:28:03.308Z,14.7
2023-04-30T10:29:01.034Z,14.6
2023-04-30T10:30:01.673Z,14.8
2023-04-30T10:31:01.271Z,14.8
2023-04-30T10:32:00.869Z,14.7
2023-04-30T10:33:01.461Z,14.7
2023-04-30T10:34:01.070Z,14.5
2023-04-30T10:35:01.669Z,14.5
2023-04-30T10:36:01.260Z,14.5
2023-04-30T10:37:00.860Z,14.5
2023-04-30T10:38:01.451Z,14.7
2023-04-30T10:39:01.048Z,14.6
2023-04-30T10:40:01.651Z,14.6
2023-04-30T10:41:01.311Z,14.7
2023-04-30T10:42:00.832Z,14.7
2023-04-30T10:43:01.406Z,14.8
2023-04-30T10:44:02.062Z,14.7
2023-04-30T10:45:00.846Z,14.6
2023-04-30T10:46:01.513Z,14.7
2023-04-30T10:47:00.816Z,14.8
2023-04-30T10:48:01.414Z,14.6
2023-04-30T10:49:01.029Z,14.7
2023-04-30T10:50:01.612Z,14.7
2023-04-30T10:51:01.238Z,14.7
2023-04-30T10:52:00.790Z,14.7
2023-04-30T10:53:01.368Z,14.6
2023-04-30T10:54:00.959Z,14.7
2023-04-30T10:55:01.542Z,14.7
2023-04-30T10:56:01.179Z,14.8
2023-04-30T10:57:01.721Z,14.9
2023-04-30T10:58:01.314Z,14.9
2023-04-30T10:59:00.908Z,14.9
2023-04-30T11:00:01.493Z,14.8
2023-04-30T11:01:01.152Z,14.7
2023-04-30T11:02:00.948Z,14.8
2023-04-30T11:03:01.293Z,14.8
2023-04-30T11:04:00.884Z,14.7
2023-04-30T11:05:01.516Z,14.7
2023-04-30T11:06:01.137Z,14.7
2023-04-30T11:07:01.695Z,14.7
2023-04-30T11:08:01.301Z,14.8
2023-04-30T11:09:00.914Z,14.9
2023-04-30T11:10:01.493Z,15
2023-04-30T11:11:01.092Z,15
2023-04-30T11:12:01.670Z,15.2
2023-04-30T11:13:01.718Z,15.3
2023-04-30T11:14:01.022Z,15.3
2023-04-30T11:15:01.506Z,15.3
2023-04-30T11:16:01.152Z,15.2
2023-04-30T11:17:01.767Z,15.3
2023-04-30T11:18:01.439Z,15.4
2023-04-30T11:19:00.971Z,15.6
2023-04-30T11:20:01.557Z,15.8
2023-04-30T11:21:01.175Z,15.7
2023-04-30T11:22:00.777Z,15.8
2023-04-30T11:23:01.365Z,15.7
2023-04-30T11:24:00.959Z,15.5
2023-04-30T11:25:01.552Z,15.7
2023-04-30T11:26:01.178Z,15.6
2023-04-30T11:27:01.739Z,15.7
2023-04-30T11:28:01.375Z,15.5
2023-04-30T11:29:01.015Z,15.4
2023-04-30T11:30:01.599Z,15.6
2023-04-30T11:31:01.272Z,15.8
2023-04-30T11:32:00.817Z,15.8
2023-04-30T11:33:01.412Z,15.7
2023-04-30T11:34:01.159Z,15.7
2023-04-30T11:35:01.721Z,15.7
2023-04-30T11:36:01.242Z,15.5
2023-04-30T11:37:00.821Z,15.5
2023-04-30T11:38:01.435Z,15.6
2023-04-30T11:39:01.052Z,15.6
2023-04-30T11:40:01.620Z,15.7
2023-04-30T11:41:01.214Z,15.9
2023-04-30T11:42:00.795Z,15.9
2023-04-30T11:43:01.386Z,15.7
2023-04-30T11:44:01.005Z,15.6
2023-04-30T11:45:01.557Z,15.3
2023-04-30T11:46:01.154Z,15.5
2023-04-30T11:47:01.854Z,15.5
2023-04-30T11:48:01.578Z,15.6
2023-04-30T11:49:00.982Z,15.9
2023-04-30T11:50:01.577Z,16.1
2023-04-30T11:51:01.180Z,15.8
2023-04-30T11:52:01.750Z,15.9
2023-04-30T11:53:01.337Z,15.8
2023-04-30T11:54:00.947Z,15.9
2023-04-30T11:55:01.523Z,15.9
2023-04-30T11:56:01.146Z,15.9
2023-04-30T11:57:01.709Z,15.7
2023-04-30T11:58:01.301Z,15.8
2023-04-30T11:59:00.928Z,15.8
2023-04-30T12:00:01.469Z,15.8
2023-04-30T12:01:01.088Z,15.9
2023-04-30T12:02:01.693Z,15.7
2023-04-30T12:03:01.787Z,15.8
2023-04-30T12:04:01.759Z,15.6
2023-04-30T12:05:01.407Z,15.7
2023-04-30T12:06:01.073Z,15.9
2023-04-30T12:07:01.589Z,15.9
2023-04-30T12:08:01.205Z,15.7
2023-04-30T12:09:00.786Z,15.8
2023-04-30T12:10:01.354Z,15.8
2023-04-30T12:11:00.993Z,16
2023-04-30T12:12:01.603Z,16
2023-04-30T12:13:01.190Z,16.2
2023-04-30T12:14:00.812Z,16.3
2023-04-30T12:15:01.363Z,16.5
2023-04-30T12:16:00.963Z,16.4
2023-04-30T12:17:01.599Z,16.5
2023-04-30T12:18:01.269Z,16.5
2023-04-30T12:19:00.797Z,16.5
2023-04-30T12:20:01.361Z,16.6
2023-04-30T12:21:00.953Z,16.4
2023-04-30T12:22:01.587Z,16.5
2023-04-30T12:23:01.185Z,16.1
2023-04-30T12:24:02.864Z,16
2023-04-30T12:25:01.316Z,16.3
2023-04-30T12:26:00.900Z,16.4
2023-04-30T12:27:01.513Z,16.5
2023-04-30T12:28:01.134Z,16.6
2023-04-30T12:29:01.687Z,16.8
2023-04-30T12:30:01.278Z,17
2023-04-30T12:31:00.881Z,17.1
2023-04-30T12:32:01.499Z,17
2023-04-30T12:33:01.183Z,17
2023-04-30T12:34:01.705Z,17
2023-04-30T12:35:01.299Z,17
2023-04-30T12:36:00.895Z,17
2023-04-30T12:37:01.501Z,17
2023-04-30T12:38:01.113Z,17.1
2023-04-30T12:39:01.685Z,17.4
2023-04-30T12:40:01.281Z,17.2
2023-04-30T12:41:01.956Z,16.9
2023-04-30T12:42:01.239Z,16.8
2023-04-30T12:43:00.834Z,17
2023-04-30T12:44:01.411Z,17
2023-04-30T12:45:01.000Z,16.9
2023-04-30T12:46:01.629Z,16.6
2023-04-30T12:47:01.242Z,16.5
2023-04-30T12:48:00.854Z,16.4
2023-04-30T12:49:01.412Z,16.4
2023-04-30T12:50:01.019Z,16.5
2023-04-30T12:51:01.614Z,16.7
2023-04-30T12:52:01.222Z,16.9
2023-04-30T12:53:00.796Z,17
2023-04-30T12:54:01.401Z,17.2
2023-04-30T12:55:01.054Z,17.2
2023-04-30T12:56:01.584Z,17.5
2023-04-30T12:57:01.229Z,17.8
2023-04-30T12:58:01.779Z,17.7
2023-04-30T12:59:01.368Z,17.6
2023-04-30T13:00:00.983Z,17.3
2023-04-30T13:01:01.578Z,17.2
2023-04-30T13:02:01.202Z,17
2023-04-30T13:03:00.929Z,17.1
2023-04-30T13:04:01.561Z,17.2
2023-04-30T13:05:01.040Z,17.1
2023-04-30T13:06:01.675Z,17.3
2023-04-30T13:07:01.258Z,17.5
2023-04-30T13:08:00.855Z,17.5
2023-04-30T13:09:01.425Z,17.8
2023-04-30T13:10:01.049Z,17.8
2023-04-30T13:11:01.613Z,17.8
2023-04-30T13:12:01.212Z,17.9
2023-04-30T13:13:00.819Z,18.1
2023-04-30T13:14:01.373Z,17.6
2023-04-30T13:15:00.978Z,17
2023-04-30T13:16:01.549Z,16.9
2023-04-30T13:17:01.192Z,16.8
2023-04-30T13:18:00.851Z,16.8
2023-04-30T13:19:01.369Z,16.9
2023-04-30T13:20:00.962Z,17
2023-04-30T13:21:01.783Z,17.3
2023-04-30T13:22:01.221Z,17.3
2023-04-30T13:23:00.800Z,17.4
2023-04-30T13:24:01.385Z,17.3
2023-04-30T13:25:00.977Z,17.4
2023-04-30T13:26:01.587Z,17.3
2023-04-30T13:27:01.186Z,17.7
2023-04-30T13:28:00.776Z,17.8
2023-04-30T13:29:01.382Z,18
2023-04-30T13:30:01.012Z,17.7
2023-04-30T13:31:01.588Z,17.7
2023-04-30T13:32:01.210Z,17.7
2023-04-30T13:33:00.893Z,17.7
2023-04-30T13:34:01.403Z,17.3
2023-04-30T13:35:01.002Z,17.2
2023-04-30T13:36:01.579Z,17.2
2023-04-30T13:37:01.291Z,16.9
2023-04-30T13:38:01.799Z,17.2